Terminal Aerodrome Forecast
Issued by NWS

Home | Current Version | Previous Version | Text Only | Print | Product List | Glossary On
Versions: 1 2 3 4 5 6 7 8 9 10 11 12 13 14 15 16 17 18 19
000
FTUS42 TJSJ 042340
TAFJSJ
TAF
TJSJ 042340Z 0500/0524 VRB05KT P6SM FEW025 SCT040
     FM051430 08010KT P6SM VCSH SCT030
     FM051730 10010KT P6SM VCSH SCT030 BKN050
     FM052330 VRB05KT P6SM SCT030=

USA.gov is the U.S. government's official web portal to all federal, state and local government web resources and services.